sensor_id;sensor_type;location;lat;lon;timestamp;P1;durP1;ratioP1;P2;durP2;ratioP2
46216;SDS011;47258;59.424;13.482;2023-07-29T00:01:47;11.57;;;2.33;;
46216;SDS011;47258;59.424;13.482;2023-07-29T00:04:14;4.30;;;2.10;;
46216;SDS011;47258;59.424;13.482;2023-07-29T00:06:41;6.38;;;1.65;;
46216;SDS011;47258;59.424;13.482;2023-07-29T00:09:08;3.03;;;1.35;;
46216;SDS011;47258;59.424;13.482;2023-07-29T00:11:35;5.97;;;1.83;;
46216;SDS011;47258;59.424;13.482;2023-07-29T00:14:02;1.92;;;1.55;;
46216;SDS011;47258;59.424;13.482;2023-07-29T00:16:31;5.30;;;1.27;;
46216;SDS011;47258;59.424;13.482;2023-07-29T00:18:58;3.10;;;1.40;;
46216;SDS011;47258;59.424;13.482;2023-07-29T00:21:25;3.42;;;1.63;;
46216;SDS011;47258;59.424;13.482;2023-07-29T00:23:52;1.98;;;1.88;;
46216;SDS011;47258;59.424;13.482;2023-07-29T00:26:22;2.00;;;1.48;;
46216;SDS011;47258;59.424;13.482;2023-07-29T00:28:51;0.88;;;0.88;;
46216;SDS011;47258;59.424;13.482;2023-07-29T00:31:18;1.17;;;1.10;;
46216;SDS011;47258;59.424;13.482;2023-07-29T00:33:46;1.25;;;1.25;;
46216;SDS011;47258;59.424;13.482;2023-07-29T00:36:13;3.28;;;2.13;;
46216;SDS011;47258;59.424;13.482;2023-07-29T00:38:40;4.82;;;2.13;;
46216;SDS011;47258;59.424;13.482;2023-07-29T00:41:07;3.45;;;1.20;;
46216;SDS011;47258;59.424;13.482;2023-07-29T00:43:38;2.03;;;1.85;;
46216;SDS011;47258;59.424;13.482;2023-07-29T00:46:05;3.15;;;1.58;;
46216;SDS011;47258;59.424;13.482;2023-07-29T00:48:33;4.82;;;1.73;;
46216;SDS011;47258;59.424;13.482;2023-07-29T00:51:01;1.10;;;1.10;;
46216;SDS011;47258;59.424;13.482;2023-07-29T00:53:29;7.68;;;1.05;;
46216;SDS011;47258;59.424;13.482;2023-07-29T00:55:56;4.15;;;0.80;;
46216;SDS011;47258;59.424;13.482;2023-07-29T00:58:23;1.33;;;1.17;;
46216;SDS011;47258;59.424;13.482;2023-07-29T01:00:50;1.52;;;1.40;;
46216;SDS011;47258;59.424;13.482;2023-07-29T01:03:17;3.15;;;2.35;;
46216;SDS011;47258;59.424;13.482;2023-07-29T01:05:46;4.25;;;2.05;;
46216;SDS011;47258;59.424;13.482;2023-07-29T01:08:25;15.60;;;1.85;;
46216;SDS011;47258;59.424;13.482;2023-07-29T01:10:58;0.98;;;0.98;;
46216;SDS011;47258;59.424;13.482;2023-07-29T01:13:37;0.70;;;0.70;;
46216;SDS011;47258;59.424;13.482;2023-07-29T01:18:35;4.43;;;1.50;;
46216;SDS011;47258;59.424;13.482;2023-07-29T01:21:03;3.88;;;2.13;;
46216;SDS011;47258;59.424;13.482;2023-07-29T01:23:33;1.40;;;1.30;;
46216;SDS011;47258;59.424;13.482;2023-07-29T01:26:01;1.00;;;1.00;;
46216;SDS011;47258;59.424;13.482;2023-07-29T01:28:29;6.72;;;1.50;;
46216;SDS011;47258;59.424;13.482;2023-07-29T01:30:57;1.77;;;1.23;;
46216;SDS011;47258;59.424;13.482;2023-07-29T01:33:25;1.90;;;1.48;;
46216;SDS011;47258;59.424;13.482;2023-07-29T01:35:54;1.02;;;0.95;;
46216;SDS011;47258;59.424;13.482;2023-07-29T01:38:24;0.60;;;0.60;;
46216;SDS011;47258;59.424;13.482;2023-07-29T01:40:58;1.40;;;1.20;;
46216;SDS011;47258;59.424;13.482;2023-07-29T01:43:27;1.50;;;1.40;;
46216;SDS011;47258;59.424;13.482;2023-07-29T01:45:55;6.55;;;1.50;;
46216;SDS011;47258;59.424;13.482;2023-07-29T01:48:22;2.17;;;1.00;;
46216;SDS011;47258;59.424;13.482;2023-07-29T01:50:50;1.00;;;1.00;;
46216;SDS011;47258;59.424;13.482;2023-07-29T01:53:17;2.58;;;1.10;;
46216;SDS011;47258;59.424;13.482;2023-07-29T01:55:44;10.18;;;1.60;;
46216;SDS011;47258;59.424;13.482;2023-07-29T01:58:13;3.60;;;1.63;;
46216;SDS011;47258;59.424;13.482;2023-07-29T02:00:40;1.75;;;1.65;;
46216;SDS011;47258;59.424;13.482;2023-07-29T02:03:07;3.15;;;1.90;;
46216;SDS011;47258;59.424;13.482;2023-07-29T02:05:35;4.22;;;1.52;;
46216;SDS011;47258;59.424;13.482;2023-07-29T02:08:02;4.13;;;1.77;;
46216;SDS011;47258;59.424;13.482;2023-07-29T02:10:29;1.02;;;1.02;;
46216;SDS011;47258;59.424;13.482;2023-07-29T02:12:57;2.33;;;1.20;;
46216;SDS011;47258;59.424;13.482;2023-07-29T02:15:25;2.33;;;1.25;;
46216;SDS011;47258;59.424;13.482;2023-07-29T02:17:53;2.30;;;1.30;;
46216;SDS011;47258;59.424;13.482;2023-07-29T02:20:20;5.85;;;1.60;;
46216;SDS011;47258;59.424;13.482;2023-07-29T02:22:48;3.05;;;1.27;;
46216;SDS011;47258;59.424;13.482;2023-07-29T02:25:15;2.92;;;1.45;;
46216;SDS011;47258;59.424;13.482;2023-07-29T02:27:42;5.07;;;2.03;;
46216;SDS011;47258;59.424;13.482;2023-07-29T02:30:10;4.10;;;1.70;;
46216;SDS011;47258;59.424;13.482;2023-07-29T02:32:39;7.45;;;2.00;;
46216;SDS011;47258;59.424;13.482;2023-07-29T02:35:06;2.97;;;2.13;;
46216;SDS011;47258;59.424;13.482;2023-07-29T02:37:35;2.10;;;1.77;;
46216;SDS011;47258;59.424;13.482;2023-07-29T02:40:02;2.90;;;1.27;;
46216;SDS011;47258;59.424;13.482;2023-07-29T02:42:31;6.57;;;1.40;;
46216;SDS011;47258;59.424;13.482;2023-07-29T02:44:58;4.57;;;1.20;;
46216;SDS011;47258;59.424;13.482;2023-07-29T02:47:25;1.58;;;1.10;;
46216;SDS011;47258;59.424;13.482;2023-07-29T02:49:54;2.47;;;1.40;;
46216;SDS011;47258;59.424;13.482;2023-07-29T02:52:21;5.13;;;1.67;;
46216;SDS011;47258;59.424;13.482;2023-07-29T02:54:49;2.22;;;2.13;;
46216;SDS011;47258;59.424;13.482;2023-07-29T02:57:16;4.40;;;2.05;;
46216;SDS011;47258;59.424;13.482;2023-07-29T02:59:43;2.30;;;2.10;;
46216;SDS011;47258;59.424;13.482;2023-07-29T03:02:11;4.47;;;2.30;;
46216;SDS011;47258;59.424;13.482;2023-07-29T03:04:38;1.98;;;1.58;;
46216;SDS011;47258;59.424;13.482;2023-07-29T03:07:07;2.35;;;1.75;;
46216;SDS011;47258;59.424;13.482;2023-07-29T03:09:34;4.30;;;1.83;;
46216;SDS011;47258;59.424;13.482;2023-07-29T03:12:02;1.63;;;1.45;;
46216;SDS011;47258;59.424;13.482;2023-07-29T03:14:29;1.58;;;1.48;;
46216;SDS011;47258;59.424;13.482;2023-07-29T03:16:56;1.58;;;1.48;;
46216;SDS011;47258;59.424;13.482;2023-07-29T03:19:24;1.60;;;1.50;;
46216;SDS011;47258;59.424;13.482;2023-07-29T03:21:51;1.80;;;1.70;;
46216;SDS011;47258;59.424;13.482;2023-07-29T03:24:20;2.55;;;2.00;;
46216;SDS011;47258;59.424;13.482;2023-07-29T03:26:47;3.25;;;2.28;;
46216;SDS011;47258;59.424;13.482;2023-07-29T03:29:15;2.90;;;1.98;;
46216;SDS011;47258;59.424;13.482;2023-07-29T03:31:42;2.63;;;2.40;;
46216;SDS011;47258;59.424;13.482;2023-07-29T03:34:09;4.15;;;2.38;;
46216;SDS011;47258;59.424;13.482;2023-07-29T03:36:37;2.97;;;1.95;;
46216;SDS011;47258;59.424;13.482;2023-07-29T03:39:05;9.65;;;3.22;;
46216;SDS011;47258;59.424;13.482;2023-07-29T03:41:34;4.60;;;2.63;;
46216;SDS011;47258;59.424;13.482;2023-07-29T03:44:01;5.60;;;3.00;;
46216;SDS011;47258;59.424;13.482;2023-07-29T03:46:28;10.10;;;3.40;;
46216;SDS011;47258;59.424;13.482;2023-07-29T03:48:56;7.95;;;3.80;;
46216;SDS011;47258;59.424;13.482;2023-07-29T03:51:23;3.40;;;3.10;;
46216;SDS011;47258;59.424;13.482;2023-07-29T03:53:50;6.00;;;3.22;;
46216;SDS011;47258;59.424;13.482;2023-07-29T03:56:18;3.60;;;2.60;;
46216;SDS011;47258;59.424;13.482;2023-07-29T03:58:46;8.20;;;3.78;;
46216;SDS011;47258;59.424;13.482;2023-07-29T04:01:14;7.07;;;3.05;;
46216;SDS011;47258;59.424;13.482;2023-07-29T04:03:41;6.60;;;3.63;;
46216;SDS011;47258;59.424;13.482;2023-07-29T04:06:09;5.35;;;2.60;;
46216;SDS011;47258;59.424;13.482;2023-07-29T04:08:36;4.57;;;2.63;;
46216;SDS011;47258;59.424;13.482;2023-07-29T04:11:03;7.85;;;3.10;;
46216;SDS011;47258;59.424;13.482;2023-07-29T04:13:31;5.15;;;3.40;;
46216;SDS011;47258;59.424;13.482;2023-07-29T04:15:59;8.65;;;2.65;;
46216;SDS011;47258;59.424;13.482;2023-07-29T04:18:27;2.83;;;2.63;;
46216;SDS011;47258;59.424;13.482;2023-07-29T04:20:54;5.93;;;3.33;;
46216;SDS011;47258;59.424;13.482;2023-07-29T04:23:22;5.35;;;4.13;;
46216;SDS011;47258;59.424;13.482;2023-07-29T04:25:49;5.15;;;3.55;;
46216;SDS011;47258;59.424;13.482;2023-07-29T04:28:17;6.53;;;3.63;;
46216;SDS011;47258;59.424;13.482;2023-07-29T04:30:44;4.35;;;3.65;;
46216;SDS011;47258;59.424;13.482;2023-07-29T04:33:13;6.03;;;4.70;;
46216;SDS011;47258;59.424;13.482;2023-07-29T04:35:40;10.85;;;5.80;;
46216;SDS011;47258;59.424;13.482;2023-07-29T04:38:07;7.75;;;5.78;;
46216;SDS011;47258;59.424;13.482;2023-07-29T04:40:34;7.72;;;4.38;;
46216;SDS011;47258;59.424;13.482;2023-07-29T04:43:02;4.97;;;4.43;;
46216;SDS011;47258;59.424;13.482;2023-07-29T04:45:29;5.53;;;4.05;;
46216;SDS011;47258;59.424;13.482;2023-07-29T04:47:57;5.25;;;4.30;;
46216;SDS011;47258;59.424;13.482;2023-07-29T04:50:26;7.68;;;5.15;;
46216;SDS011;47258;59.424;13.482;2023-07-29T04:52:53;8.23;;;5.13;;
46216;SDS011;47258;59.424;13.482;2023-07-29T04:55:21;5.47;;;4.90;;
46216;SDS011;47258;59.424;13.482;2023-07-29T04:57:48;20.70;;;7.25;;
46216;SDS011;47258;59.424;13.482;2023-07-29T05:00:16;7.40;;;4.63;;
46216;SDS011;47258;59.424;13.482;2023-07-29T05:02:43;8.75;;;5.63;;
46216;SDS011;47258;59.424;13.482;2023-07-29T05:05:11;8.75;;;5.53;;
46216;SDS011;47258;59.424;13.482;2023-07-29T05:07:39;9.82;;;6.68;;
46216;SDS011;47258;59.424;13.482;2023-07-29T05:10:07;11.77;;;7.63;;
46216;SDS011;47258;59.424;13.482;2023-07-29T05:12:34;13.10;;;8.23;;
46216;SDS011;47258;59.424;13.482;2023-07-29T05:15:02;22.95;;;11.25;;
46216;SDS011;47258;59.424;13.482;2023-07-29T05:17:29;20.23;;;11.82;;
46216;SDS011;47258;59.424;13.482;2023-07-29T05:19:57;28.80;;;11.93;;
46216;SDS011;47258;59.424;13.482;2023-07-29T05:22:24;18.60;;;11.45;;
46216;SDS011;47258;59.424;13.482;2023-07-29T05:24:53;17.20;;;11.43;;
46216;SDS011;47258;59.424;13.482;2023-07-29T05:27:20;27.08;;;11.65;;
46216;SDS011;47258;59.424;13.482;2023-07-29T05:29:47;22.73;;;12.38;;
46216;SDS011;47258;59.424;13.482;2023-07-29T05:32:14;17.92;;;9.77;;
46216;SDS011;47258;59.424;13.482;2023-07-29T05:34:42;21.35;;;10.13;;
46216;SDS011;47258;59.424;13.482;2023-07-29T05:37:09;20.65;;;9.00;;
46216;SDS011;47258;59.424;13.482;2023-07-29T05:39:36;12.18;;;7.32;;
46216;SDS011;47258;59.424;13.482;2023-07-29T05:42:06;10.93;;;7.38;;
46216;SDS011;47258;59.424;13.482;2023-07-29T05:44:33;9.95;;;6.97;;
46216;SDS011;47258;59.424;13.482;2023-07-29T05:47:00;14.48;;;6.65;;
46216;SDS011;47258;59.424;13.482;2023-07-29T05:49:28;11.02;;;5.35;;
46216;SDS011;47258;59.424;13.482;2023-07-29T05:51:55;12.25;;;5.63;;
46216;SDS011;47258;59.424;13.482;2023-07-29T05:54:22;9.63;;;4.60;;
46216;SDS011;47258;59.424;13.482;2023-07-29T05:56:49;9.45;;;4.75;;
46216;SDS011;47258;59.424;13.482;2023-07-29T05:59:18;9.93;;;5.82;;
46216;SDS011;47258;59.424;13.482;2023-07-29T06:01:45;13.35;;;5.32;;
46216;SDS011;47258;59.424;13.482;2023-07-29T06:04:13;5.65;;;4.75;;
46216;SDS011;47258;59.424;13.482;2023-07-29T06:06:40;11.32;;;5.53;;
46216;SDS011;47258;59.424;13.482;2023-07-29T06:09:07;7.68;;;4.93;;
46216;SDS011;47258;59.424;13.482;2023-07-29T06:11:35;9.75;;;5.30;;
46216;SDS011;47258;59.424;13.482;2023-07-29T06:14:02;11.50;;;5.10;;
46216;SDS011;47258;59.424;13.482;2023-07-29T06:16:31;9.77;;;4.13;;
46216;SDS011;47258;59.424;13.482;2023-07-29T06:18:58;5.15;;;3.35;;
46216;SDS011;47258;59.424;13.482;2023-07-29T06:21:25;8.30;;;3.80;;
46216;SDS011;47258;59.424;13.482;2023-07-29T06:23:52;7.10;;;3.83;;
46216;SDS011;47258;59.424;13.482;2023-07-29T06:26:19;8.00;;;4.22;;
46216;SDS011;47258;59.424;13.482;2023-07-29T06:28:46;6.53;;;3.83;;
46216;SDS011;47258;59.424;13.482;2023-07-29T06:31:13;9.57;;;3.85;;
46216;SDS011;47258;59.424;13.482;2023-07-29T06:33:42;5.53;;;4.22;;
46216;SDS011;47258;59.424;13.482;2023-07-29T06:36:09;7.90;;;4.38;;
46216;SDS011;47258;59.424;13.482;2023-07-29T06:38:36;8.00;;;3.92;;
46216;SDS011;47258;59.424;13.482;2023-07-29T06:41:03;8.52;;;4.03;;
46216;SDS011;47258;59.424;13.482;2023-07-29T06:43:30;5.88;;;4.00;;
46216;SDS011;47258;59.424;13.482;2023-07-29T06:45:57;7.43;;;3.38;;
46216;SDS011;47258;59.424;13.482;2023-07-29T06:48:24;7.72;;;3.75;;
46216;SDS011;47258;59.424;13.482;2023-07-29T06:50:53;7.57;;;3.78;;
46216;SDS011;47258;59.424;13.482;2023-07-29T06:53:25;7.03;;;3.88;;
46216;SDS011;47258;59.424;13.482;2023-07-29T06:55:52;6.72;;;4.40;;
46216;SDS011;47258;59.424;13.482;2023-07-29T06:58:19;6.13;;;4.15;;
46216;SDS011;47258;59.424;13.482;2023-07-29T07:00:47;5.85;;;3.83;;
46216;SDS011;47258;59.424;13.482;2023-07-29T07:03:14;5.30;;;3.53;;
46216;SDS011;47258;59.424;13.482;2023-07-29T07:05:41;7.25;;;3.63;;
46216;SDS011;47258;59.424;13.482;2023-07-29T07:08:09;7.20;;;3.88;;
46216;SDS011;47258;59.424;13.482;2023-07-29T07:10:36;8.85;;;4.45;;
46216;SDS011;47258;59.424;13.482;2023-07-29T07:13:03;11.70;;;4.65;;
46216;SDS011;47258;59.424;13.482;2023-07-29T07:15:30;8.10;;;3.55;;
46216;SDS011;47258;59.424;13.482;2023-07-29T07:17:58;10.55;;;4.72;;
46216;SDS011;47258;59.424;13.482;2023-07-29T07:20:25;9.13;;;3.95;;
46216;SDS011;47258;59.424;13.482;2023-07-29T07:22:52;6.30;;;4.18;;
46216;SDS011;47258;59.424;13.482;2023-07-29T07:25:20;9.32;;;4.47;;
46216;SDS011;47258;59.424;13.482;2023-07-29T07:27:47;8.75;;;4.32;;
46216;SDS011;47258;59.424;13.482;2023-07-29T07:30:14;10.48;;;4.63;;
46216;SDS011;47258;59.424;13.482;2023-07-29T07:32:42;10.57;;;4.45;;
46216;SDS011;47258;59.424;13.482;2023-07-29T07:35:10;12.13;;;4.63;;
46216;SDS011;47258;59.424;13.482;2023-07-29T07:37:37;9.32;;;4.07;;
46216;SDS011;47258;59.424;13.482;2023-07-29T07:40:05;6.93;;;3.60;;
46216;SDS011;47258;59.424;13.482;2023-07-29T07:42:34;4.70;;;3.63;;
46216;SDS011;47258;59.424;13.482;2023-07-29T07:45:01;7.85;;;3.65;;
46216;SDS011;47258;59.424;13.482;2023-07-29T07:47:28;9.77;;;4.32;;
46216;SDS011;47258;59.424;13.482;2023-07-29T07:49:55;8.57;;;4.05;;
46216;SDS011;47258;59.424;13.482;2023-07-29T07:52:22;11.50;;;4.18;;
46216;SDS011;47258;59.424;13.482;2023-07-29T07:54:51;5.97;;;4.00;;
46216;SDS011;47258;59.424;13.482;2023-07-29T07:57:19;6.80;;;3.53;;
46216;SDS011;47258;59.424;13.482;2023-07-29T07:59:48;9.23;;;4.07;;
46216;SDS011;47258;59.424;13.482;2023-07-29T08:02:17;10.73;;;3.97;;
46216;SDS011;47258;59.424;13.482;2023-07-29T08:04:45;8.05;;;3.45;;
46216;SDS011;47258;59.424;13.482;2023-07-29T08:07:12;8.85;;;3.95;;
46216;SDS011;47258;59.424;13.482;2023-07-29T08:09:39;7.45;;;3.55;;
46216;SDS011;47258;59.424;13.482;2023-07-29T08:12:06;6.57;;;3.17;;
46216;SDS011;47258;59.424;13.482;2023-07-29T08:14:34;5.70;;;3.28;;
46216;SDS011;47258;59.424;13.482;2023-07-29T08:17:02;5.18;;;3.58;;
46216;SDS011;47258;59.424;13.482;2023-07-29T08:19:30;3.50;;;2.93;;
46216;SDS011;47258;59.424;13.482;2023-07-29T08:21:57;9.63;;;3.50;;
46216;SDS011;47258;59.424;13.482;2023-07-29T08:24:24;7.85;;;3.08;;
46216;SDS011;47258;59.424;13.482;2023-07-29T08:26:51;13.70;;;4.00;;
46216;SDS011;47258;59.424;13.482;2023-07-29T08:29:19;5.60;;;3.42;;
46216;SDS011;47258;59.424;13.482;2023-07-29T08:31:46;4.43;;;2.25;;
46216;SDS011;47258;59.424;13.482;2023-07-29T08:34:15;8.25;;;3.15;;
46216;SDS011;47258;59.424;13.482;2023-07-29T08:36:42;7.00;;;2.45;;
46216;SDS011;47258;59.424;13.482;2023-07-29T08:39:09;7.50;;;2.95;;
46216;SDS011;47258;59.424;13.482;2023-07-29T08:41:37;8.88;;;3.22;;
46216;SDS011;47258;59.424;13.482;2023-07-29T08:44:09;4.57;;;3.05;;
46216;SDS011;47258;59.424;13.482;2023-07-29T08:46:38;8.80;;;2.63;;
46216;SDS011;47258;59.424;13.482;2023-07-29T08:49:06;5.65;;;2.70;;
46216;SDS011;47258;59.424;13.482;2023-07-29T08:51:35;4.68;;;2.92;;
46216;SDS011;47258;59.424;13.482;2023-07-29T08:54:03;5.18;;;2.75;;
46216;SDS011;47258;59.424;13.482;2023-07-29T08:56:30;3.92;;;2.58;;
46216;SDS011;47258;59.424;13.482;2023-07-29T08:58:57;5.30;;;2.47;;
46216;SDS011;47258;59.424;13.482;2023-07-29T09:01:27;3.28;;;2.35;;
46216;SDS011;47258;59.424;13.482;2023-07-29T09:03:55;3.05;;;2.83;;
46216;SDS011;47258;59.424;13.482;2023-07-29T09:06:22;5.65;;;3.13;;
46216;SDS011;47258;59.424;13.482;2023-07-29T09:11:21;9.50;;;3.55;;
46216;SDS011;47258;59.424;13.482;2023-07-29T09:13:49;6.28;;;3.80;;
46216;SDS011;47258;59.424;13.482;2023-07-29T09:16:16;5.38;;;3.70;;
46216;SDS011;47258;59.424;13.482;2023-07-29T09:18:43;5.88;;;3.35;;
46216;SDS011;47258;59.424;13.482;2023-07-29T09:21:10;8.98;;;3.95;;
46216;SDS011;47258;59.424;13.482;2023-07-29T09:23:38;9.20;;;4.13;;
46216;SDS011;47258;59.424;13.482;2023-07-29T09:26:08;5.23;;;3.33;;
46216;SDS011;47258;59.424;13.482;2023-07-29T09:28:35;7.90;;;3.70;;
46216;SDS011;47258;59.424;13.482;2023-07-29T09:31:03;6.43;;;3.42;;
46216;SDS011;47258;59.424;13.482;2023-07-29T09:33:33;6.10;;;3.53;;
46216;SDS011;47258;59.424;13.482;2023-07-29T09:36:02;7.20;;;3.75;;
46216;SDS011;47258;59.424;13.482;2023-07-29T09:38:34;4.03;;;3.35;;
46216;SDS011;47258;59.424;13.482;2023-07-29T09:41:01;5.60;;;3.17;;
46216;SDS011;47258;59.424;13.482;2023-07-29T09:43:30;5.80;;;3.15;;
46216;SDS011;47258;59.424;13.482;2023-07-29T09:45:59;4.35;;;3.10;;
46216;SDS011;47258;59.424;13.482;2023-07-29T09:48:27;10.40;;;4.10;;
46216;SDS011;47258;59.424;13.482;2023-07-29T09:50:54;3.25;;;2.65;;
46216;SDS011;47258;59.424;13.482;2023-07-29T09:53:22;5.57;;;2.45;;
46216;SDS011;47258;59.424;13.482;2023-07-29T09:55:49;2.88;;;2.67;;
46216;SDS011;47258;59.424;13.482;2023-07-29T09:58:19;8.02;;;3.50;;
46216;SDS011;47258;59.424;13.482;2023-07-29T10:00:54;3.88;;;2.67;;
46216;SDS011;47258;59.424;13.482;2023-07-29T10:03:21;3.70;;;2.70;;
46216;SDS011;47258;59.424;13.482;2023-07-29T10:05:48;11.18;;;3.05;;
46216;SDS011;47258;59.424;13.482;2023-07-29T10:08:16;3.58;;;3.00;;
46216;SDS011;47258;59.424;13.482;2023-07-29T10:10:45;3.40;;;2.60;;
46216;SDS011;47258;59.424;13.482;2023-07-29T10:13:13;3.03;;;2.75;;
46216;SDS011;47258;59.424;13.482;2023-07-29T10:15:41;2.58;;;2.35;;
46216;SDS011;47258;59.424;13.482;2023-07-29T10:18:11;3.40;;;2.65;;
46216;SDS011;47258;59.424;13.482;2023-07-29T10:20:39;12.35;;;3.83;;
46216;SDS011;47258;59.424;13.482;2023-07-29T10:23:08;5.63;;;3.05;;
46216;SDS011;47258;59.424;13.482;2023-07-29T10:25:37;11.35;;;2.70;;
46216;SDS011;47258;59.424;13.482;2023-07-29T10:28:07;8.02;;;3.03;;
46216;SDS011;47258;59.424;13.482;2023-07-29T10:30:37;5.93;;;3.08;;
46216;SDS011;47258;59.424;13.482;2023-07-29T10:33:05;3.15;;;2.83;;
46216;SDS011;47258;59.424;13.482;2023-07-29T10:35:34;2.38;;;2.08;;
46216;SDS011;47258;59.424;13.482;2023-07-29T10:38:01;3.45;;;3.10;;
46216;SDS011;47258;59.424;13.482;2023-07-29T10:40:43;5.75;;;2.65;;
46216;SDS011;47258;59.424;13.482;2023-07-29T10:43:11;3.42;;;2.30;;
46216;SDS011;47258;59.424;13.482;2023-07-29T10:45:40;6.20;;;3.00;;
46216;SDS011;47258;59.424;13.482;2023-07-29T10:48:10;2.55;;;2.30;;
46216;SDS011;47258;59.424;13.482;2023-07-29T10:50:37;3.05;;;2.50;;
46216;SDS011;47258;59.424;13.482;2023-07-29T10:53:04;4.00;;;3.08;;
46216;SDS011;47258;59.424;13.482;2023-07-29T10:55:32;8.25;;;2.85;;
46216;SDS011;47258;59.424;13.482;2023-07-29T11:00:35;2.47;;;1.77;;
46216;SDS011;47258;59.424;13.482;2023-07-29T11:03:02;3.08;;;2.08;;
46216;SDS011;47258;59.424;13.482;2023-07-29T11:05:46;3.63;;;2.75;;
46216;SDS011;47258;59.424;13.482;2023-07-29T11:08:18;3.25;;;2.67;;
46216;SDS011;47258;59.424;13.482;2023-07-29T11:11:03;4.40;;;2.67;;
46216;SDS011;47258;59.424;13.482;2023-07-29T11:13:32;5.72;;;2.25;;
46216;SDS011;47258;59.424;13.482;2023-07-29T11:16:00;6.70;;;3.38;;
46216;SDS011;47258;59.424;13.482;2023-07-29T11:18:28;2.83;;;2.53;;
46216;SDS011;47258;59.424;13.482;2023-07-29T11:20:57;3.20;;;2.70;;
46216;SDS011;47258;59.424;13.482;2023-07-29T11:23:29;2.85;;;2.63;;
46216;SDS011;47258;59.424;13.482;2023-07-29T11:25:57;3.15;;;2.78;;
46216;SDS011;47258;59.424;13.482;2023-07-29T11:28:24;3.28;;;2.88;;
46216;SDS011;47258;59.424;13.482;2023-07-29T11:30:52;3.85;;;2.30;;
46216;SDS011;47258;59.424;13.482;2023-07-29T11:33:20;4.90;;;2.50;;
46216;SDS011;47258;59.424;13.482;2023-07-29T11:35:49;3.75;;;2.40;;
46216;SDS011;47258;59.424;13.482;2023-07-29T11:38:18;3.90;;;3.08;;
46216;SDS011;47258;59.424;13.482;2023-07-29T11:43:23;5.18;;;3.63;;
46216;SDS011;47258;59.424;13.482;2023-07-29T11:45:51;4.88;;;3.50;;
46216;SDS011;47258;59.424;13.482;2023-07-29T11:48:18;3.45;;;3.03;;
46216;SDS011;47258;59.424;13.482;2023-07-29T11:50:53;3.28;;;3.03;;
46216;SDS011;47258;59.424;13.482;2023-07-29T11:53:21;3.67;;;2.80;;
46216;SDS011;47258;59.424;13.482;2023-07-29T11:55:50;3.90;;;3.13;;
46216;SDS011;47258;59.424;13.482;2023-07-29T12:00:45;2.65;;;2.38;;
46216;SDS011;47258;59.424;13.482;2023-07-29T12:03:13;4.15;;;2.88;;
46216;SDS011;47258;59.424;13.482;2023-07-29T12:05:42;3.67;;;3.38;;
46216;SDS011;47258;59.424;13.482;2023-07-29T12:08:10;2.30;;;2.03;;
46216;SDS011;47258;59.424;13.482;2023-07-29T12:10:38;3.72;;;2.90;;
46216;SDS011;47258;59.424;13.482;2023-07-29T12:13:07;2.97;;;2.72;;
46216;SDS011;47258;59.424;13.482;2023-07-29T12:15:35;3.22;;;2.47;;
46216;SDS011;47258;59.424;13.482;2023-07-29T12:18:04;3.38;;;2.38;;
46216;SDS011;47258;59.424;13.482;2023-07-29T12:20:31;3.50;;;2.60;;
46216;SDS011;47258;59.424;13.482;2023-07-29T12:22:59;3.42;;;1.90;;
46216;SDS011;47258;59.424;13.482;2023-07-29T12:25:28;5.63;;;2.03;;
46216;SDS011;47258;59.424;13.482;2023-07-29T12:27:56;1.83;;;1.70;;
46216;SDS011;47258;59.424;13.482;2023-07-29T12:30:28;3.63;;;2.10;;
46216;SDS011;47258;59.424;13.482;2023-07-29T12:32:55;3.75;;;2.33;;
46216;SDS011;47258;59.424;13.482;2023-07-29T12:35:22;5.70;;;2.28;;
46216;SDS011;47258;59.424;13.482;2023-07-29T12:37:57;4.78;;;2.58;;
46216;SDS011;47258;59.424;13.482;2023-07-29T12:40:25;3.00;;;2.47;;
46216;SDS011;47258;59.424;13.482;2023-07-29T12:42:53;2.80;;;2.15;;
46216;SDS011;47258;59.424;13.482;2023-07-29T12:45:22;2.95;;;2.00;;
46216;SDS011;47258;59.424;13.482;2023-07-29T12:47:51;3.72;;;1.80;;
46216;SDS011;47258;59.424;13.482;2023-07-29T12:50:19;3.58;;;2.50;;
46216;SDS011;47258;59.424;13.482;2023-07-29T12:52:46;5.70;;;2.42;;
46216;SDS011;47258;59.424;13.482;2023-07-29T12:55:13;6.40;;;2.83;;
46216;SDS011;47258;59.424;13.482;2023-07-29T12:57:41;6.03;;;3.45;;
46216;SDS011;47258;59.424;13.482;2023-07-29T13:00:09;3.63;;;3.03;;
46216;SDS011;47258;59.424;13.482;2023-07-29T13:02:38;3.63;;;2.85;;
46216;SDS011;47258;59.424;13.482;2023-07-29T13:05:06;2.53;;;2.33;;
46216;SDS011;47258;59.424;13.482;2023-07-29T13:07:35;6.15;;;2.55;;
46216;SDS011;47258;59.424;13.482;2023-07-29T13:10:03;2.55;;;2.30;;
46216;SDS011;47258;59.424;13.482;2023-07-29T13:12:30;3.33;;;2.85;;
46216;SDS011;47258;59.424;13.482;2023-07-29T13:14:57;12.60;;;7.20;;
46216;SDS011;47258;59.424;13.482;2023-07-29T13:17:25;3.83;;;2.63;;
46216;SDS011;47258;59.424;13.482;2023-07-29T13:19:53;3.85;;;3.03;;
46216;SDS011;47258;59.424;13.482;2023-07-29T13:22:20;3.60;;;3.03;;
46216;SDS011;47258;59.424;13.482;2023-07-29T13:24:47;3.75;;;2.40;;
46216;SDS011;47258;59.424;13.482;2023-07-29T13:27:14;3.50;;;2.55;;
46216;SDS011;47258;59.424;13.482;2023-07-29T13:29:42;4.07;;;3.17;;
46216;SDS011;47258;59.424;13.482;2023-07-29T13:32:09;2.88;;;2.60;;
46216;SDS011;47258;59.424;13.482;2023-07-29T13:34:36;4.43;;;3.03;;
46216;SDS011;47258;59.424;13.482;2023-07-29T13:37:06;3.42;;;2.38;;
46216;SDS011;47258;59.424;13.482;2023-07-29T13:39:33;2.70;;;2.23;;
46216;SDS011;47258;59.424;13.482;2023-07-29T13:42:00;6.95;;;3.38;;
46216;SDS011;47258;59.424;13.482;2023-07-29T13:44:27;3.60;;;3.28;;
46216;SDS011;47258;59.424;13.482;2023-07-29T13:46:54;4.90;;;2.78;;
46216;SDS011;47258;59.424;13.482;2023-07-29T13:49:21;2.42;;;2.20;;
46216;SDS011;47258;59.424;13.482;2023-07-29T13:51:48;5.25;;;2.40;;
46216;SDS011;47258;59.424;13.482;2023-07-29T13:54:17;3.78;;;2.50;;
46216;SDS011;47258;59.424;13.482;2023-07-29T13:56:44;5.47;;;3.25;;
46216;SDS011;47258;59.424;13.482;2023-07-29T13:59:11;6.32;;;3.10;;
46216;SDS011;47258;59.424;13.482;2023-07-29T14:01:38;3.70;;;2.60;;
46216;SDS011;47258;59.424;13.482;2023-07-29T14:04:05;2.92;;;2.63;;
46216;SDS011;47258;59.424;13.482;2023-07-29T14:06:32;4.72;;;2.65;;
46216;SDS011;47258;59.424;13.482;2023-07-29T14:08:59;2.60;;;2.40;;
46216;SDS011;47258;59.424;13.482;2023-07-29T14:11:28;3.80;;;2.28;;
46216;SDS011;47258;59.424;13.482;2023-07-29T14:13:55;1.70;;;1.60;;
46216;SDS011;47258;59.424;13.482;2023-07-29T14:16:22;2.50;;;1.90;;
46216;SDS011;47258;59.424;13.482;2023-07-29T14:18:49;2.95;;;2.45;;
46216;SDS011;47258;59.424;13.482;2023-07-29T14:21:16;2.17;;;1.98;;
46216;SDS011;47258;59.424;13.482;2023-07-29T14:23:43;2.20;;;1.95;;
46216;SDS011;47258;59.424;13.482;2023-07-29T14:26:10;4.10;;;2.40;;
46216;SDS011;47258;59.424;13.482;2023-07-29T14:28:38;4.28;;;2.28;;
46216;SDS011;47258;59.424;13.482;2023-07-29T14:31:05;4.22;;;2.28;;
46216;SDS011;47258;59.424;13.482;2023-07-29T14:33:32;2.10;;;1.83;;
46216;SDS011;47258;59.424;13.482;2023-07-29T14:35:59;2.88;;;2.67;;
46216;SDS011;47258;59.424;13.482;2023-07-29T14:38:28;5.23;;;2.10;;
46216;SDS011;47258;59.424;13.482;2023-07-29T14:40:55;4.80;;;2.05;;
46216;SDS011;47258;59.424;13.482;2023-07-29T14:43:22;2.20;;;2.00;;
46216;SDS011;47258;59.424;13.482;2023-07-29T14:45:51;2.85;;;2.38;;
46216;SDS011;47258;59.424;13.482;2023-07-29T14:48:18;2.75;;;2.20;;
46216;SDS011;47258;59.424;13.482;2023-07-29T14:50:45;2.38;;;2.17;;